Time;durP1;ratioP1;P1;durP2;ratioP2;P2;SDS_P1;SDS_P2;PMS_P1;PMS_P2;Temp;Humidity;BMP_temperature;BMP_pressure;BME280_temperature;BME280_humidity;BME280_pressure;Samples;Min_cycle;Max_cycle;Signal;HPM_P1;HPM_P2
2022/12/14 00:01:22;;;;;;;60.00;32.53;;;-4.80;99.90;;;;;;5005214;28;20111;-75
2022/12/14 00:03:50;;;;;;;60.30;34.70;;;-4.80;99.90;;;;;;5019464;28;20052;-77
2022/12/14 00:06:21;;;;;;;57.38;32.15;;;-4.80;99.90;;;;;;5020158;28;20125;-75
2022/12/14 00:08:51;;;;;;;55.03;32.45;;;-4.80;99.90;;;;;;5025200;28;20533;-75
2022/12/14 00:11:21;;;;;;;60.80;33.00;;;-4.70;99.90;;;;;;5024338;28;20045;-75
2022/12/14 00:13:52;;;;;;;61.33;33.65;;;-4.70;99.90;;;;;;5029692;28;20251;-77
2022/12/14 00:16:20;;;;;;;54.45;32.50;;;-4.60;99.90;;;;;;5052159;28;20045;-76
2022/12/14 00:18:51;;;;;;;58.30;35.58;;;-4.60;99.90;;;;;;5019581;28;20053;-76
2022/12/14 00:21:19;;;;;;;58.55;33.65;;;-4.60;99.90;;;;;;5024866;28;20045;-77
2022/12/14 00:23:49;;;;;;;61.67;35.25;;;-4.50;99.90;;;;;;5009250;28;20125;-76
2022/12/14 00:26:24;;;;;;;60.20;35.58;;;-4.50;99.90;;;;;;5016318;28;20048;-76
2022/12/14 00:28:53;;;;;;;59.90;34.33;;;-4.50;99.90;;;;;;5018413;28;20125;-76
2022/12/14 00:31:22;;;;;;;58.65;34.25;;;-4.60;99.90;;;;;;5023038;28;20041;-76
2022/12/14 00:33:49;;;;;;;58.08;34.75;;;-4.60;99.90;;;;;;5025529;28;20510;-75
2022/12/14 00:36:16;;;;;;;56.85;34.08;;;-4.60;99.90;;;;;;5015413;28;20107;-76
2022/12/14 00:38:43;;;;;;;59.20;33.67;;;-4.60;99.90;;;;;;5009222;28;20052;-76
2022/12/14 00:41:11;;;;;;;59.50;33.90;;;-4.60;99.90;;;;;;5007196;28;20133;-77
2022/12/14 00:43:38;;;;;;;50.58;31.30;;;-4.50;99.90;;;;;;5024419;28;20037;-76
2022/12/14 00:46:05;;;;;;;51.55;31.92;;;-4.50;99.90;;;;;;5009025;28;20494;-76
2022/12/14 00:48:32;;;;;;;53.28;33.53;;;-4.40;99.90;;;;;;5021181;28;20053;-75
2022/12/14 00:50:59;;;;;;;49.88;31.55;;;-4.40;99.90;;;;;;5022616;28;20137;-78
2022/12/14 00:53:26;;;;;;;45.05;30.08;;;-4.40;99.90;;;;;;5039130;28;20046;-76
2022/12/14 00:55:52;;;;;;;36.20;26.20;;;-4.30;99.90;;;;;;5020916;28;20064;-77
2022/12/14 00:58:22;;;;;;;42.83;28.33;;;-4.30;99.90;;;;;;5012272;28;20045;-76
2022/12/14 01:01:13;;;;;;;32.85;26.35;;;-4.20;99.90;;;;;;5020450;28;20044;-76
2022/12/14 01:03:40;;;;;;;34.47;26.23;;;-4.10;99.90;;;;;;5043280;28;20084;-76
2022/12/14 01:06:19;;;;;;;38.15;25.80;;;-4.10;99.90;;;;;;5025679;28;20486;-77
2022/12/14 01:08:46;;;;;;;33.10;25.80;;;-4.00;99.90;;;;;;5027660;28;20353;-77
2022/12/14 01:11:14;;;;;;;33.78;26.70;;;-4.00;99.90;;;;;;5010155;28;20077;-76
2022/12/14 01:13:41;;;;;;;37.65;27.13;;;-3.90;99.90;;;;;;5013982;28;20072;-75
2022/12/14 01:16:13;;;;;;;36.15;26.55;;;-3.90;99.90;;;;;;5008214;28;20045;-77
2022/12/14 01:18:42;;;;;;;35.15;27.95;;;-3.90;99.90;;;;;;5030743;28;20057;-77
2022/12/14 01:21:21;;;;;;;36.60;26.98;;;-3.90;99.90;;;;;;5009184;28;20049;-76
2022/12/14 01:23:51;;;;;;;34.08;26.67;;;-3.90;99.90;;;;;;5049284;28;20037;-76
2022/12/14 01:26:19;;;;;;;34.05;26.85;;;-4.00;99.90;;;;;;5021357;28;20499;-77
2022/12/14 01:28:55;;;;;;;36.10;26.73;;;-4.10;99.90;;;;;;5022912;28;20045;-76
2022/12/14 01:31:26;;;;;;;28.70;25.35;;;-4.00;99.90;;;;;;5010413;28;20498;-76
2022/12/14 01:33:53;;;;;;;26.60;23.80;;;-3.90;99.90;;;;;;5032430;28;20283;-76
2022/12/14 01:36:22;;;;;;;26.73;23.92;;;-3.80;99.90;;;;;;5029053;28;20037;-76
2022/12/14 01:38:53;;;;;;;26.45;23.65;;;-3.80;99.90;;;;;;5037826;28;20056;-76
2022/12/14 01:41:27;;;;;;;22.95;20.58;;;-3.60;99.90;;;;;;5011460;28;20440;-75
2022/12/14 01:43:53;;;;;;;27.30;23.73;;;-3.50;99.90;;;;;;5012425;28;20045;-75
2022/12/14 01:46:34;;;;;;;28.25;24.33;;;-3.50;99.90;;;;;;5011035;28;20037;-76
2022/12/14 01:49:13;;;;;;;29.38;25.27;;;-3.50;99.90;;;;;;5029691;28;20095;-76
2022/12/14 01:51:45;;;;;;;32.85;25.70;;;-3.60;99.90;;;;;;5008027;28;20499;-75
2022/12/14 01:54:14;;;;;;;36.40;27.38;;;-3.70;99.90;;;;;;5012707;28;20073;-76
2022/12/14 01:56:43;;;;;;;33.10;27.38;;;-3.80;99.90;;;;;;5026180;28;20041;-76
2022/12/14 01:59:17;;;;;;;37.20;28.25;;;-3.80;99.90;;;;;;5028613;28;20069;-76
2022/12/14 02:01:45;;;;;;;36.83;27.50;;;-3.80;99.90;;;;;;5022973;28;20744;-76
2022/12/14 02:04:16;;;;;;;38.00;28.55;;;-4.00;99.90;;;;;;5028129;28;20514;-76
2022/12/14 02:06:44;;;;;;;37.72;27.42;;;-4.00;99.90;;;;;;5064398;28;20069;-76
2022/12/14 02:09:18;;;;;;;32.83;26.85;;;-4.00;99.90;;;;;;5024701;28;20492;-76
2022/12/14 02:12:03;;;;;;;28.92;24.17;;;-4.10;99.90;;;;;;5022656;28;20628;-75
2022/12/14 02:14:29;;;;;;;26.35;22.63;;;-4.00;99.90;;;;;;5006169;28;20049;-75
2022/12/14 02:16:57;;;;;;;25.95;23.30;;;-3.90;99.90;;;;;;5023291;28;20056;-75
2022/12/14 02:19:24;;;;;;;25.85;23.15;;;-3.70;99.90;;;;;;5028885;28;20052;-75
2022/12/14 02:22:18;;;;;;;24.80;22.33;;;-3.70;99.90;;;;;;5020546;28;20062;-76
2022/12/14 02:25:06;;;;;;;32.00;23.65;;;-3.60;99.90;;;;;;5011562;28;20438;-77
2022/12/14 02:27:55;;;;;;;25.85;23.45;;;-3.60;99.90;;;;;;5021426;28;20056;-76
2022/12/14 02:30:26;;;;;;;26.20;23.55;;;-3.60;99.90;;;;;;5023737;28;20037;-76
2022/12/14 02:33:37;;;;;;;29.60;23.92;;;-3.70;99.90;;;;;;5014106;28;20046;-76
2022/12/14 02:36:03;;;;;;;30.55;25.05;;;-3.70;99.90;;;;;;5020602;28;20045;-77
2022/12/14 02:38:42;;;;;;;30.10;26.42;;;-3.80;99.90;;;;;;5051848;28;20145;-75
2022/12/14 02:41:21;;;;;;;29.15;24.63;;;-3.80;99.90;;;;;;5024622;28;20042;-76
2022/12/14 02:44:15;;;;;;;27.17;24.30;;;-3.80;99.90;;;;;;5012118;28;20057;-75
2022/12/14 02:47:02;;;;;;;31.17;25.17;;;-4.00;99.90;;;;;;5006478;28;20045;-77
2022/12/14 02:49:47;;;;;;;30.65;25.42;;;-4.00;99.90;;;;;;5040184;28;20218;-75
2022/12/14 02:52:30;;;;;;;31.05;25.83;;;-4.00;99.90;;;;;;5028595;28;20049;-74
2022/12/14 02:55:13;;;;;;;29.55;25.52;;;-4.00;99.90;;;;;;5035338;28;20144;-75
2022/12/14 02:57:45;;;;;;;34.53;25.67;;;-4.10;99.90;;;;;;5051073;28;20064;-75
2022/12/14 03:00:12;;;;;;;30.85;25.25;;;-4.10;99.90;;;;;;5034418;28;20073;-74
2022/12/14 03:02:42;;;;;;;28.83;25.80;;;-4.10;99.90;;;;;;5043592;28;20293;-76
2022/12/14 03:05:09;;;;;;;29.23;25.35;;;-4.10;99.90;;;;;;5032237;28;20049;-74
2022/12/14 03:07:46;;;;;;;32.60;24.95;;;-4.00;99.90;;;;;;5049885;28;20038;-75
2022/12/14 03:10:29;;;;;;;31.10;26.45;;;-4.00;99.90;;;;;;5026736;28;20038;-75
2022/12/14 03:13:23;;;;;;;32.63;26.10;;;-4.10;99.90;;;;;;5045300;28;20041;-75
2022/12/14 03:16:17;;;;;;;33.38;27.17;;;-4.10;99.90;;;;;;5034528;28;20040;-75
2022/12/14 03:18:58;;;;;;;36.08;27.48;;;-4.10;99.90;;;;;;5032534;28;20041;-75
2022/12/14 03:21:30;;;;;;;37.05;27.33;;;-4.10;99.90;;;;;;5020141;28;20041;-74
2022/12/14 03:24:01;;;;;;;38.75;28.90;;;-4.20;99.90;;;;;;5038386;28;20109;-75
2022/12/14 03:26:31;;;;;;;36.38;28.25;;;-4.30;99.90;;;;;;5041314;28;20109;-75
2022/12/14 03:29:05;;;;;;;38.83;28.15;;;-4.30;99.90;;;;;;5011081;28;20042;-76
2022/12/14 03:31:43;;;;;;;42.72;29.48;;;-4.40;99.90;;;;;;5000547;28;20059;-76
2022/12/14 03:34:18;;;;;;;38.35;29.13;;;-4.50;99.90;;;;;;5006285;28;20124;-76
2022/12/14 03:36:53;;;;;;;40.58;30.65;;;-4.50;99.90;;;;;;5015157;28;20041;-76
2022/12/14 03:39:29;;;;;;;34.17;26.80;;;-4.50;99.90;;;;;;5026514;28;20573;-76
2022/12/14 03:42:04;;;;;;;37.42;29.40;;;-4.50;99.90;;;;;;5018635;28;20124;-75
2022/12/14 03:45:19;;;;;;;45.55;32.08;;;-4.60;99.90;;;;;;5053491;28;20155;-76
2022/12/14 03:48:10;;;;;;;40.10;29.80;;;-4.60;99.90;;;;;;5019121;23;20643;-72
2022/12/14 03:50:46;;;;;;;40.20;29.33;;;-4.60;99.90;;;;;;5030629;28;20040;-72
2022/12/14 03:53:40;;;;;;;44.67;31.08;;;-4.60;99.90;;;;;;5010326;28;20178;-71
2022/12/14 03:56:25;;;;;;;43.33;30.30;;;-4.60;99.90;;;;;;5035510;28;20040;-72
2022/12/14 03:59:15;;;;;;;41.65;30.98;;;-4.70;99.90;;;;;;5034047;28;20849;-72
2022/12/14 04:02:06;;;;;;;38.05;29.90;;;-4.80;99.90;;;;;;5032564;28;20040;-71
2022/12/14 04:05:03;;;;;;;40.10;29.92;;;-4.80;99.90;;;;;;5027528;28;20979;-71
2022/12/14 04:08:01;;;;;;;37.97;30.40;;;-4.80;99.90;;;;;;5030461;28;20075;-72
2022/12/14 04:19:23;;;;;;;40.70;29.30;;;-4.80;99.90;;;;;;5029912;28;20483;-71
2022/12/14 04:22:00;;;;;;;34.05;27.33;;;-4.70;99.90;;;;;;5036048;28;20124;-71
2022/12/14 04:27:42;;;;;;;36.03;29.75;;;-4.70;99.90;;;;;;5027092;28;20047;-72
2022/12/14 04:30:11;;;;;;;32.83;27.85;;;-4.70;99.90;;;;;;5034646;28;20037;-72
2022/12/14 04:32:59;;;;;;;34.22;28.38;;;-4.70;99.90;;;;;;5033505;28;20044;-71
2022/12/14 04:35:34;;;;;;;30.35;26.77;;;-4.70;99.90;;;;;;5013530;28;20481;-71
2022/12/14 04:38:15;;;;;;;33.80;26.23;;;-4.70;99.90;;;;;;5017812;28;20045;-71
2022/12/14 04:40:50;;;;;;;29.10;25.48;;;-4.70;99.90;;;;;;5032936;28;20136;-72
2022/12/14 04:43:25;;;;;;;29.30;24.92;;;-4.60;99.90;;;;;;5029847;28;20397;-71
2022/12/14 04:45:59;;;;;;;27.35;24.52;;;-4.60;99.90;;;;;;5035482;28;20044;-71
2022/12/14 04:48:31;;;;;;;29.08;25.00;;;-4.60;99.90;;;;;;5033493;28;20115;-71
2022/12/14 04:51:14;;;;;;;27.23;24.42;;;-4.40;99.90;;;;;;5035134;28;20325;-70
2022/12/14 04:53:45;;;;;;;27.48;24.58;;;-4.50;99.90;;;;;;5033627;28;20489;-70
2022/12/14 04:56:24;;;;;;;27.85;24.88;;;-4.40;99.90;;;;;;5036052;28;20051;-70
2022/12/14 04:58:51;;;;;;;30.23;27.02;;;-4.50;99.90;;;;;;5034589;28;20048;-71
2022/12/14 05:01:45;;;;;;;32.13;26.27;;;-4.50;99.90;;;;;;5032015;28;20043;-71
2022/12/14 05:04:37;;;;;;;36.28;27.20;;;-4.50;99.90;;;;;;5031776;28;20134;-70
2022/12/14 05:07:09;;;;;;;29.42;26.30;;;-4.60;99.90;;;;;;5043154;28;20063;-70
2022/12/14 05:09:46;;;;;;;33.90;25.58;;;-4.70;99.90;;;;;;5032718;28;20076;-71
2022/12/14 05:12:27;;;;;;;28.83;25.60;;;-4.70;99.90;;;;;;5034716;28;20037;-70
2022/12/14 05:15:09;;;;;;;25.00;22.35;;;-4.80;99.90;;;;;;5047217;28;20046;-70
2022/12/14 05:17:38;;;;;;;31.65;25.88;;;-4.80;99.90;;;;;;5040063;28;20138;-71
2022/12/14 05:20:11;;;;;;;30.02;25.75;;;-4.90;99.90;;;;;;5028508;28;20041;-71
2022/12/14 05:22:39;;;;;;;32.33;26.33;;;-4.80;99.90;;;;;;5034488;28;20048;-71
2022/12/14 05:25:06;;;;;;;31.95;27.02;;;-4.80;99.90;;;;;;5037122;28;20055;-70
2022/12/14 05:27:32;;;;;;;42.45;28.75;;;-4.80;99.90;;;;;;5032773;28;20452;-71
2022/12/14 05:29:59;;;;;;;36.92;27.35;;;-4.80;99.90;;;;;;5035533;28;20054;-71
2022/12/14 05:32:28;;;;;;;32.30;27.10;;;-5.00;99.90;;;;;;5030025;28;20235;-71
2022/12/14 05:34:54;;;;;;;29.45;26.17;;;-4.90;99.90;;;;;;5037028;28;20050;-70
2022/12/14 05:37:21;;;;;;;34.08;25.88;;;-5.00;99.90;;;;;;5029633;28;20071;-71
2022/12/14 05:39:49;;;;;;;31.20;25.95;;;-5.00;99.90;;;;;;5019324;28;20289;-71
2022/12/14 05:42:15;;;;;;;31.08;26.65;;;-4.90;99.90;;;;;;5014789;28;20048;-70
2022/12/14 05:44:42;;;;;;;33.10;27.38;;;-4.90;99.90;;;;;;5017320;28;20242;-71
2022/12/14 05:47:09;;;;;;;46.47;34.20;;;-4.80;99.90;;;;;;5038064;28;20040;-70
2022/12/14 05:49:36;;;;;;;50.05;35.90;;;-4.90;99.90;;;;;;5035594;28;20036;-71
2022/12/14 05:52:03;;;;;;;112.78;56.47;;;-4.90;99.90;;;;;;5037613;28;20363;-71
2022/12/14 05:54:29;;;;;;;49.80;35.10;;;-4.90;99.90;;;;;;5018863;28;20040;-70
2022/12/14 05:56:56;;;;;;;35.50;26.90;;;-4.90;99.90;;;;;;5039606;28;20054;-70
2022/12/14 05:59:23;;;;;;;30.92;26.23;;;-5.00;99.90;;;;;;5036044;28;20521;-71
2022/12/14 06:01:50;;;;;;;35.97;28.35;;;-5.00;99.90;;;;;;5036895;28;20036;-70
2022/12/14 06:04:17;;;;;;;35.78;27.55;;;-4.90;99.90;;;;;;5035541;28;20037;-70
2022/12/14 06:06:44;;;;;;;31.38;26.35;;;-4.90;99.90;;;;;;5039031;28;20040;-72
2022/12/14 06:09:16;;;;;;;34.25;27.13;;;-4.90;99.90;;;;;;5042413;28;20047;-72
2022/12/14 06:11:44;;;;;;;33.17;27.17;;;-5.00;99.90;;;;;;5041783;28;20047;-71
2022/12/14 06:14:12;;;;;;;30.67;26.27;;;-5.00;99.90;;;;;;5042599;28;20055;-71
2022/12/14 06:16:41;;;;;;;34.88;26.17;;;-5.10;99.90;;;;;;5038489;28;20059;-72
2022/12/14 06:19:09;;;;;;;34.10;28.50;;;-5.00;99.90;;;;;;5039891;28;20119;-70
2022/12/14 06:21:38;;;;;;;33.20;27.40;;;-5.10;99.90;;;;;;5030655;28;20139;-71
2022/12/14 06:24:05;;;;;;;33.63;27.92;;;-5.10;99.90;;;;;;5033445;28;20169;-71
2022/12/14 06:26:35;;;;;;;33.22;26.73;;;-5.10;99.90;;;;;;5020599;28;20801;-70
2022/12/14 06:29:02;;;;;;;26.65;23.48;;;-5.10;99.90;;;;;;5036445;28;20044;-70
2022/12/14 06:31:31;;;;;;;32.13;27.45;;;-5.10;99.90;;;;;;5012861;28;20562;-70
2022/12/14 06:34:00;;;;;;;25.55;22.83;;;-5.00;99.90;;;;;;5037615;28;20184;-71
2022/12/14 06:36:31;;;;;;;29.10;26.10;;;-5.10;99.90;;;;;;5031395;28;20053;-70
2022/12/14 06:39:01;;;;;;;36.47;27.75;;;-5.00;99.90;;;;;;5040443;28;20068;-70
2022/12/14 06:41:28;;;;;;;33.97;27.35;;;-5.00;99.90;;;;;;5030469;28;20048;-71
2022/12/14 06:43:56;;;;;;;29.63;26.17;;;-5.10;99.90;;;;;;5042131;28;20044;-70
2022/12/14 06:46:23;;;;;;;38.88;29.00;;;-5.10;99.90;;;;;;5031340;28;20498;-71
2022/12/14 06:48:54;;;;;;;35.78;27.95;;;-5.10;99.90;;;;;;5039825;28;20123;-70
2022/12/14 06:51:22;;;;;;;36.03;28.45;;;-5.10;99.90;;;;;;5033023;28;20428;-71
2022/12/14 06:53:50;;;;;;;37.15;27.95;;;-5.10;99.90;;;;;;5038342;28;20049;-71
2022/12/14 06:56:18;;;;;;;36.90;27.58;;;-5.10;99.90;;;;;;5030543;28;20131;-70
2022/12/14 06:58:46;;;;;;;28.88;23.02;;;-5.10;99.90;;;;;;5034854;28;20325;-71
2022/12/14 07:01:19;;;;;;;41.97;28.30;;;-5.10;99.90;;;;;;5033995;28;20041;-70
2022/12/14 07:03:48;;;;;;;42.80;31.00;;;-5.10;99.90;;;;;;5033590;28;20036;-71
2022/12/14 07:06:15;;;;;;;35.60;29.35;;;-5.10;99.90;;;;;;5033012;28;20795;-70
2022/12/14 07:08:42;;;;;;;38.42;29.10;;;-5.10;99.90;;;;;;5042186;28;20047;-70
2022/12/14 07:11:11;;;;;;;38.22;27.92;;;-5.10;99.90;;;;;;5035450;28;20040;-71
2022/12/14 07:13:41;;;;;;;130.23;53.42;;;-5.10;99.90;;;;;;5033670;28;20071;-70
2022/12/14 07:16:14;;;;;;;158.25;58.50;;;-5.00;99.90;;;;;;5032904;28;20075;-70
2022/12/14 07:18:41;;;;;;;92.47;44.90;;;-5.00;99.90;;;;;;5033339;28;20040;-71
2022/12/14 07:21:11;;;;;;;97.82;42.95;;;-5.10;99.90;;;;;;5032912;28;20129;-71
2022/12/14 07:23:43;;;;;;;107.55;46.22;;;-5.10;99.90;;;;;;5033735;28;20103;-70
2022/12/14 07:26:13;;;;;;;60.17;33.58;;;-5.20;99.90;;;;;;5036770;28;20295;-70
2022/12/14 07:28:41;;;;;;;97.50;46.22;;;-5.20;99.90;;;;;;5034923;28;20519;-70
2022/12/14 07:31:27;;;;;;;42.30;30.80;;;-5.20;99.90;;;;;;5014477;28;20123;-70
2022/12/14 07:33:57;;;;;;;80.05;41.60;;;-5.10;99.90;;;;;;5035552;28;20053;-70
2022/12/14 07:36:26;;;;;;;27.98;25.02;;;-5.00;99.90;;;;;;5031777;28;20452;-71
2022/12/14 07:38:54;;;;;;;44.53;31.05;;;-5.00;99.90;;;;;;5038386;28;20056;-70
2022/12/14 07:41:31;;;;;;;39.92;30.00;;;-5.00;99.90;;;;;;5031089;28;20040;-70
2022/12/14 07:43:59;;;;;;;59.05;35.80;;;-5.00;99.90;;;;;;5033551;28;20223;-73
2022/12/14 07:46:28;;;;;;;54.97;34.70;;;-5.00;99.90;;;;;;5013880;28;20068;-70
2022/12/14 07:48:56;;;;;;;53.63;35.10;;;-5.00;99.90;;;;;;5038371;28;20058;-70
2022/12/14 07:51:26;;;;;;;36.83;29.70;;;-5.00;99.90;;;;;;5015073;28;20125;-73
2022/12/14 07:53:53;;;;;;;37.30;29.00;;;-4.90;99.90;;;;;;5038646;28;20060;-72
2022/12/14 07:56:23;;;;;;;35.55;26.58;;;-5.00;99.90;;;;;;5033753;28;20516;-72
2022/12/14 07:58:51;;;;;;;48.25;33.53;;;-5.00;99.90;;;;;;5033399;28;20152;-73
2022/12/14 08:01:19;;;;;;;43.67;31.95;;;-4.90;99.90;;;;;;5032320;28;20045;-73
2022/12/14 08:03:49;;;;;;;36.08;28.88;;;-4.90;99.90;;;;;;5040100;28;20048;-72
2022/12/14 08:06:18;;;;;;;33.75;26.90;;;-4.90;99.90;;;;;;5024710;28;20258;-72
2022/12/14 08:08:45;;;;;;;38.10;31.05;;;-4.90;99.90;;;;;;5037513;28;20098;-70
2022/12/14 08:11:13;;;;;;;38.85;29.02;;;-4.80;99.90;;;;;;5031374;28;20067;-71
2022/12/14 08:13:42;;;;;;;39.83;30.15;;;-4.90;99.90;;;;;;5037891;28;20515;-70
2022/12/14 08:16:14;;;;;;;37.28;28.83;;;-4.90;99.90;;;;;;5034714;28;20140;-70
2022/12/14 08:18:42;;;;;;;37.65;30.63;;;-4.90;99.90;;;;;;5019068;28;20060;-71
2022/12/14 08:21:11;;;;;;;37.03;31.10;;;-4.90;99.90;;;;;;5036617;28;20056;-70
2022/12/14 08:23:40;;;;;;;44.75;32.65;;;-5.00;99.90;;;;;;5041453;28;20052;-70
2022/12/14 08:26:07;;;;;;;39.75;35.47;;;-5.00;99.90;;;;;;5037618;28;20037;-71
2022/12/14 08:28:35;;;;;;;39.78;34.85;;;-5.00;99.90;;;;;;5036641;28;21065;-71
2022/12/14 08:31:10;;;;;;;40.30;35.63;;;-5.00;99.90;;;;;;5037385;28;20270;-72
2022/12/14 08:33:38;;;;;;;38.42;34.28;;;-4.90;99.90;;;;;;5035619;28;20052;-70
2022/12/14 08:36:08;;;;;;;43.30;39.28;;;-4.90;99.90;;;;;;5038005;28;20087;-72
2022/12/14 08:38:36;;;;;;;46.60;41.75;;;-4.90;99.90;;;;;;5035792;28;20167;-71
2022/12/14 08:41:04;;;;;;;45.80;41.22;;;-4.80;99.90;;;;;;5038713;28;20048;-70
2022/12/14 08:43:30;;;;;;;45.67;40.78;;;-4.70;99.90;;;;;;5036278;28;20053;-72
2022/12/14 08:45:58;;;;;;;44.15;39.67;;;-4.70;99.90;;;;;;5040027;28;20564;-72
2022/12/14 08:48:25;;;;;;;187.05;102.10;;;-4.70;99.90;;;;;;5034392;28;20048;-70
2022/12/14 08:50:52;;;;;;;195.88;91.47;;;-4.70;99.90;;;;;;5016391;28;20063;-70
2022/12/14 08:53:19;;;;;;;126.75;72.03;;;-4.60;99.90;;;;;;5031900;28;20039;-70
2022/12/14 08:55:46;;;;;;;528.85;242.93;;;-4.70;99.90;;;;;;5040078;28;20107;-71
2022/12/14 08:58:13;;;;;;;103.90;60.90;;;-4.50;99.90;;;;;;5036963;28;20052;-71
2022/12/14 09:00:40;;;;;;;90.57;59.42;;;-4.40;99.90;;;;;;5028155;28;20139;-70
2022/12/14 09:03:06;;;;;;;241.15;111.13;;;-4.30;99.90;;;;;;5022242;28;20044;-71
2022/12/14 09:05:34;;;;;;;236.23;122.25;;;-4.40;99.90;;;;;;5030108;28;20361;-71
2022/12/14 09:08:00;;;;;;;61.20;48.83;;;-4.50;99.90;;;;;;5038175;28;20063;-71
2022/12/14 09:10:27;;;;;;;43.20;38.95;;;-4.30;99.90;;;;;;5032449;28;20075;-71
2022/12/14 09:12:54;;;;;;;51.17;42.00;;;-4.30;99.90;;;;;;5038466;28;20029;-71
2022/12/14 09:15:20;;;;;;;45.75;38.75;;;-4.40;99.90;;;;;;5032825;28;20043;-69
2022/12/14 09:17:48;;;;;;;52.97;45.45;;;-4.20;99.90;;;;;;5041399;28;20044;-70
2022/12/14 09:20:15;;;;;;;45.08;40.63;;;-4.10;99.90;;;;;;5032281;28;20048;-71
2022/12/14 09:22:42;;;;;;;45.75;41.28;;;-4.10;99.90;;;;;;5044500;28;20098;-71
2022/12/14 09:25:09;;;;;;;45.58;41.22;;;-4.10;99.90;;;;;;5044768;28;20039;-71
2022/12/14 09:27:36;;;;;;;47.20;42.28;;;-4.00;99.90;;;;;;5039608;28;20075;-70
2022/12/14 09:30:03;;;;;;;53.92;48.10;;;-4.00;99.90;;;;;;5035138;28;20044;-71
2022/12/14 09:32:29;;;;;;;48.17;43.17;;;-3.90;99.90;;;;;;5037382;28;20040;-70
2022/12/14 09:34:58;;;;;;;44.95;40.25;;;-3.90;99.90;;;;;;5025369;28;20037;-71
2022/12/14 09:37:25;;;;;;;44.17;39.58;;;-4.10;99.90;;;;;;5036878;28;20525;-72
2022/12/14 09:39:52;;;;;;;46.90;42.13;;;-4.10;99.90;;;;;;5040471;28;20046;-70
2022/12/14 09:42:42;;;;;;;45.97;41.35;;;-4.00;99.90;;;;;;5033295;28;20401;-71
2022/12/14 09:45:29;;;;;;;47.97;43.50;;;-3.90;99.90;;;;;;5034412;28;20541;-70
2022/12/14 09:48:03;;;;;;;47.92;43.78;;;-3.90;99.90;;;;;;5041962;28;20497;-70
2022/12/14 09:50:31;;;;;;;46.92;42.30;;;-3.80;99.90;;;;;;5028308;28;20580;-70
2022/12/14 09:55:37;;;;;;;48.47;43.95;;;-3.60;99.90;;;;;;4950736;28;20058;-74
2022/12/14 09:58:19;;;;;;;47.88;43.47;;;-3.50;99.90;;;;;;4941421;28;20160;-75
2022/12/14 10:01:09;;;;;;;48.33;43.70;;;-3.50;99.90;;;;;;4950369;28;20418;-74
2022/12/14 10:03:52;;;;;;;52.30;47.45;;;-3.40;99.90;;;;;;4929974;28;20629;-74
2022/12/14 10:06:51;;;;;;;52.50;47.17;;;-3.40;99.90;;;;;;4954421;28;20050;-75
2022/12/14 10:09:21;;;;;;;45.50;41.10;;;-3.50;99.90;;;;;;4957071;28;20509;-74
2022/12/14 10:12:22;;;;;;;45.30;41.08;;;-3.60;99.90;;;;;;4976424;28;20517;-74
2022/12/14 10:15:17;;;;;;;43.33;39.40;;;-3.70;99.90;;;;;;4975526;28;20042;-74
2022/12/14 10:17:59;;;;;;;44.28;40.15;;;-3.70;99.90;;;;;;4952450;28;20051;-74
2022/12/14 10:20:47;;;;;;;43.63;39.28;;;-3.60;99.90;;;;;;4969274;28;20061;-74
2022/12/14 10:23:18;;;;;;;44.67;40.08;;;-3.60;99.90;;;;;;4959622;28;20057;-74
2022/12/14 10:25:53;;;;;;;37.03;33.75;;;-3.60;99.90;;;;;;4980701;28;20066;-75
2022/12/14 10:28:42;;;;;;;40.70;36.88;;;-3.60;99.90;;;;;;4957036;28;20433;-74
2022/12/14 10:31:13;;;;;;;36.88;33.35;;;-3.70;99.90;;;;;;4955826;28;20038;-74
2022/12/14 10:33:45;;;;;;;39.53;36.33;;;-3.80;99.90;;;;;;4974270;28;20474;-74
2022/12/14 10:36:21;;;;;;;38.33;35.17;;;-3.90;99.90;;;;;;4972668;28;20039;-75
2022/12/14 10:39:01;;;;;;;40.45;36.90;;;-3.80;99.90;;;;;;4987513;28;20513;-74
2022/12/14 10:41:42;;;;;;;38.63;35.58;;;-3.80;99.90;;;;;;4953384;28;20039;-74
2022/12/14 10:44:38;;;;;;;46.00;41.83;;;-3.70;99.90;;;;;;4958153;28;20315;-74
2022/12/14 10:47:18;;;;;;;41.80;38.20;;;-3.60;99.90;;;;;;4957145;28;20038;-74
2022/12/14 10:50:00;;;;;;;42.33;38.42;;;-3.50;99.90;;;;;;4954216;28;20050;-74
2022/12/14 10:52:35;;;;;;;40.13;36.30;;;-3.40;99.90;;;;;;4955353;28;20038;-74
2022/12/14 10:55:10;;;;;;;43.00;37.80;;;-3.40;99.90;;;;;;4963136;28;20050;-74
2022/12/14 10:57:36;;;;;;;42.97;38.03;;;-3.30;99.90;;;;;;4959746;28;21077;-74
2022/12/14 11:00:13;;;;;;;44.63;40.22;;;-3.30;99.90;;;;;;4958889;28;20043;-74
2022/12/14 11:02:53;;;;;;;43.10;38.95;;;-3.20;99.90;;;;;;4968852;28;20054;-74
2022/12/14 11:05:43;;;;;;;42.17;38.10;;;-3.10;99.90;;;;;;4955160;28;20081;-74
2022/12/14 11:08:42;;;;;;;41.90;37.97;;;-3.00;99.90;;;;;;4934513;28;20504;-74
2022/12/14 11:11:22;;;;;;;37.78;34.92;;;-3.10;99.90;;;;;;4956170;28;20031;-74
2022/12/14 11:14:04;;;;;;;38.05;34.45;;;-3.20;99.90;;;;;;4964223;28;20390;-74
2022/12/14 11:16:38;;;;;;;42.13;38.58;;;-3.00;99.90;;;;;;4969764;28;20453;-75
2022/12/14 11:19:15;;;;;;;43.60;39.58;;;-3.00;99.90;;;;;;4963038;28;20053;-74
2022/12/14 11:21:43;;;;;;;42.15;38.17;;;-2.90;99.90;;;;;;4957198;28;20043;-75
2022/12/14 11:24:22;;;;;;;44.00;40.13;;;-3.00;99.90;;;;;;4978281;28;20397;-74
2022/12/14 11:26:52;;;;;;;41.58;38.05;;;-3.00;99.90;;;;;;4953443;28;20066;-74
2022/12/14 11:29:27;;;;;;;44.17;40.05;;;-3.10;99.90;;;;;;4959331;28;20039;-75
2022/12/14 11:31:54;;;;;;;42.17;38.38;;;-3.20;99.90;;;;;;4956385;28;20039;-75
2022/12/14 11:34:37;;;;;;;74.38;54.88;;;-3.10;99.90;;;;;;4958987;28;21501;-74
2022/12/14 11:37:13;;;;;;;273.00;141.18;;;-3.00;99.90;;;;;;4959248;28;20049;-74
2022/12/14 11:39:41;;;;;;;50.03;45.22;;;-3.10;99.90;;;;;;4976166;28;20054;-74
2022/12/14 11:42:16;;;;;;;50.22;44.97;;;-3.10;99.90;;;;;;4956439;28;20039;-75
2022/12/14 11:44:44;;;;;;;52.72;47.67;;;-2.80;99.90;;;;;;4960618;28;20049;-75
2022/12/14 11:47:17;;;;;;;114.05;87.65;;;-2.90;99.90;;;;;;4955995;28;20049;-75
2022/12/14 11:49:53;;;;;;;43.65;39.65;;;-2.90;99.90;;;;;;4961558;28;20433;-75
2022/12/14 11:52:37;;;;;;;105.93;70.00;;;-2.70;99.90;;;;;;4969627;28;20043;-74
2022/12/14 11:55:13;;;;;;;98.63;66.43;;;-2.70;99.90;;;;;;4969502;28;20045;-75
2022/12/14 11:57:50;;;;;;;74.53;58.55;;;-2.50;99.90;;;;;;4975438;28;20047;-74
2022/12/14 12:00:24;;;;;;;49.63;44.75;;;-2.50;99.90;;;;;;4975233;28;20163;-74
2022/12/14 12:03:00;;;;;;;53.13;46.85;;;-2.40;99.90;;;;;;4981471;28;20049;-73
2022/12/14 12:05:31;;;;;;;48.67;44.08;;;-2.20;99.90;;;;;;4962546;28;20464;-73
2022/12/14 12:08:01;;;;;;;55.42;50.10;;;-2.20;99.90;;;;;;4958179;28;20386;-73
2022/12/14 12:10:39;;;;;;;51.35;47.05;;;-2.10;99.90;;;;;;4967366;28;20054;-73
2022/12/14 12:13:20;;;;;;;58.95;52.72;;;-2.00;99.90;;;;;;4963538;28;20043;-73
2022/12/14 12:16:04;;;;;;;45.65;41.38;;;-2.10;99.90;;;;;;4966666;28;20057;-73
2022/12/14 12:18:59;;;;;;;49.65;45.40;;;-2.10;99.90;;;;;;4955950;28;20052;-73
2022/12/14 12:21:30;;;;;;;50.28;46.38;;;-2.00;99.90;;;;;;4957950;28;20041;-74
2022/12/14 12:24:08;;;;;;;46.50;42.60;;;-2.00;99.90;;;;;;4956444;28;20600;-73
2022/12/14 12:26:40;;;;;;;60.53;54.80;;;-2.30;99.90;;;;;;4950433;28;20134;-74
2022/12/14 12:29:25;;;;;;;58.67;53.17;;;-2.30;99.90;;;;;;4972341;28;20429;-74
2022/12/14 12:32:13;;;;;;;46.15;42.00;;;-2.30;99.90;;;;;;4954336;28;20501;-73
2022/12/14 12:34:50;;;;;;;47.83;43.83;;;-2.40;99.90;;;;;;4971112;28;20559;-74
2022/12/14 12:37:20;;;;;;;49.13;44.95;;;-2.20;99.90;;;;;;4956487;28;20444;-73
2022/12/14 12:40:03;;;;;;;43.05;39.20;;;-2.20;99.90;;;;;;4971587;28;20125;-73
2022/12/14 12:42:52;;;;;;;47.22;43.38;;;-2.10;99.90;;;;;;4952754;28;20138;-73
2022/12/14 12:45:25;;;;;;;45.35;41.60;;;-2.00;99.90;;;;;;4968404;28;20480;-73
2022/12/14 12:47:59;;;;;;;43.85;40.17;;;-1.90;99.90;;;;;;4926576;28;20691;-72
2022/12/14 12:50:32;;;;;;;48.38;44.08;;;-2.00;99.90;;;;;;4934291;28;21093;-75
2022/12/14 12:53:15;;;;;;;49.47;44.88;;;-2.20;99.90;;;;;;4953093;28;20047;-74
2022/12/14 12:55:53;;;;;;;48.83;44.38;;;-2.20;99.90;;;;;;4921268;28;20249;-74
2022/12/14 12:58:27;;;;;;;45.72;41.92;;;-2.10;99.90;;;;;;4937284;28;20065;-75
2022/12/14 13:01:00;;;;;;;46.75;42.30;;;-1.90;99.90;;;;;;4939830;28;20035;-73
2022/12/14 13:03:40;;;;;;;48.05;43.95;;;-1.80;99.90;;;;;;4938436;28;20651;-73
2022/12/14 13:06:31;;;;;;;43.33;39.60;;;-1.90;99.90;;;;;;4941122;28;20270;-73
2022/12/14 13:09:01;;;;;;;46.15;42.15;;;-1.90;99.90;;;;;;4941785;28;20504;-74
2022/12/14 13:11:37;;;;;;;48.40;44.47;;;-2.00;99.90;;;;;;4935331;28;20051;-73
2022/12/14 13:14:37;;;;;;;47.22;42.85;;;-2.00;99.90;;;;;;4944154;28;20239;-73